Bonpland, Argentina
Current Conditions -  °F | °C
As of 11:00 PM on Friday 24 Oct 2014 (Local Time) from SARL Reporting Station
Clear Clear  
Wind Chill: 24°   Ceiling: Unl
Heat Index: 24°   Visibility: 6mi
Dew Point: 18°   Wind: 6mph
Humidity: 69%   Direction: 90°E
Pressure: 29.88"   Gusts: NA
Location:  29.82°S, 57.43°W
Report Text: SARL 250200Z 09005KT CAVOK 24/18 Q1012
Loading
Personal Weather Stations






























Interactive Weather Map
Tropical Storm Tracking
New forecast layout! Learn more

10-Day Weather Forecast

Advertisements
Track Severe Weather on mobile